Time;durP1;ratioP1;P1;durP2;ratioP2;P2;SDS_P1;SDS_P2;PMS_P1;PMS_P2;Temp;Humidity;BMP_temperature;BMP_pressure;BME280_temperature;BME280_humidity;BME280_pressure;Samples;Min_cycle;Max_cycle;Signal;HPM_P1;HPM_P2
2021/04/05 00:01:31;;;;;;;10.88;8.52;;;5.70;99.90;;;;;;4954429;28;20033;-78
2021/04/05 00:03:58;;;;;;;13.25;8.63;;;5.70;99.90;;;;;;4979457;28;20118;-78
2021/04/05 00:06:23;;;;;;;10.50;7.70;;;5.50;99.90;;;;;;5009386;28;20042;-78
2021/04/05 00:08:50;;;;;;;11.20;8.50;;;5.50;99.90;;;;;;4993587;28;20037;-79
2021/04/05 00:11:18;;;;;;;11.75;9.60;;;5.50;99.90;;;;;;5010284;28;20022;-79
2021/04/05 00:13:44;;;;;;;13.30;9.52;;;5.50;99.90;;;;;;4993336;28;20114;-79
2021/04/05 00:16:12;;;;;;;15.55;9.15;;;5.60;99.90;;;;;;5001858;28;20018;-79
2021/04/05 00:18:38;;;;;;;13.30;9.57;;;5.50;99.90;;;;;;5007806;28;20044;-79
2021/04/05 00:21:16;;;;;;;12.77;9.68;;;5.50;99.90;;;;;;5009977;28;20356;-82
2021/04/05 00:23:42;;;;;;;11.57;8.93;;;5.50;99.90;;;;;;4984912;28;20721;-78
2021/04/05 00:26:11;;;;;;;12.05;9.15;;;5.50;99.90;;;;;;4973538;28;20038;-79
2021/04/05 00:28:37;;;;;;;12.15;9.68;;;5.50;99.90;;;;;;4988659;28;20034;-80
2021/04/05 00:31:03;;;;;;;12.85;9.32;;;5.50;99.90;;;;;;4990580;28;20026;-84
2021/04/05 00:33:29;;;;;;;12.30;8.77;;;5.60;99.90;;;;;;4972085;28;20033;-80
2021/04/05 00:35:55;;;;;;;13.82;10.05;;;5.70;99.90;;;;;;4991009;28;20035;-80
2021/04/05 00:38:21;;;;;;;13.10;9.68;;;5.70;99.90;;;;;;4990424;28;20050;-79
2021/04/05 00:40:55;;;;;;;12.07;9.32;;;5.60;99.90;;;;;;4987976;28;20022;-78
2021/04/05 00:43:21;;;;;;;13.85;9.88;;;5.60;99.90;;;;;;4990308;28;20034;-79
2021/04/05 00:45:49;;;;;;;12.05;9.00;;;5.50;99.90;;;;;;4991161;28;20097;-79
2021/04/05 00:48:16;;;;;;;15.68;10.02;;;5.50;99.90;;;;;;4973304;28;20054;-79
2021/04/05 00:51:08;;;;;;;13.20;9.32;;;5.50;99.90;;;;;;4993936;28;20102;-79
2021/04/05 00:53:44;;;;;;;12.55;9.70;;;5.50;99.90;;;;;;4970030;28;20027;-78
2021/04/05 00:56:13;;;;;;;12.27;9.18;;;5.50;99.90;;;;;;4991035;28;20081;-78
2021/04/05 00:58:40;;;;;;;11.98;8.63;;;5.50;99.90;;;;;;4994328;28;20011;-79
2021/04/05 01:01:08;;;;;;;14.15;9.27;;;5.70;99.90;;;;;;4994212;28;20022;-79
2021/04/05 01:03:48;;;;;;;14.50;9.00;;;5.50;99.90;;;;;;4991793;28;20030;-79
2021/04/05 01:06:22;;;;;;;12.65;9.20;;;5.40;99.90;;;;;;4993430;28;20406;-79
2021/04/05 01:08:49;;;;;;;13.90;9.70;;;5.50;99.90;;;;;;4976360;28;20061;-78
2021/04/05 01:11:16;;;;;;;11.60;9.35;;;5.40;99.90;;;;;;4993582;28;20033;-78
2021/04/05 01:13:43;;;;;;;11.45;8.93;;;5.40;99.90;;;;;;4987425;28;20015;-77
2021/04/05 01:16:10;;;;;;;13.05;9.73;;;5.40;99.90;;;;;;4992651;28;20025;-77
2021/04/05 01:18:37;;;;;;;11.63;8.88;;;5.50;99.90;;;;;;5010436;28;20026;-77
2021/04/05 01:21:03;;;;;;;15.00;10.07;;;5.60;99.90;;;;;;4993029;28;20034;-77
2021/04/05 01:23:29;;;;;;;13.70;9.38;;;5.60;99.90;;;;;;4992711;28;20102;-78
2021/04/05 01:25:55;;;;;;;15.07;9.63;;;5.50;99.90;;;;;;4993922;28;20015;-77
2021/04/05 01:28:21;;;;;;;13.07;9.32;;;5.40;99.90;;;;;;4990645;28;20085;-77
2021/04/05 01:30:53;;;;;;;14.38;9.80;;;5.40;99.90;;;;;;4994070;28;20018;-78
2021/04/05 01:33:29;;;;;;;15.50;10.05;;;5.40;99.90;;;;;;4992022;28;20461;-78
2021/04/05 01:36:06;;;;;;;12.07;9.48;;;5.20;99.90;;;;;;4993747;28;20022;-77
2021/04/05 01:38:38;;;;;;;13.85;9.57;;;5.30;99.90;;;;;;4992643;28;20025;-77
2021/04/05 01:41:05;;;;;;;15.18;9.93;;;5.30;99.90;;;;;;4991338;28;20070;-77
2021/04/05 01:43:32;;;;;;;14.18;10.10;;;5.30;99.90;;;;;;4992457;28;20015;-77
2021/04/05 01:45:59;;;;;;;17.65;10.40;;;5.30;99.90;;;;;;4993508;28;20031;-77
2021/04/05 01:48:30;;;;;;;13.13;10.00;;;5.20;99.90;;;;;;4992600;28;20034;-78
2021/04/05 01:51:11;;;;;;;15.55;10.98;;;5.20;99.90;;;;;;4991763;28;20607;-77
2021/04/05 01:53:39;;;;;;;16.35;9.90;;;5.10;99.90;;;;;;4973452;28;20029;-77
2021/04/05 01:56:10;;;;;;;14.23;10.10;;;5.00;99.90;;;;;;4993513;28;20018;-79
2021/04/05 01:58:38;;;;;;;12.75;10.05;;;4.90;99.90;;;;;;4972709;28;20022;-78
2021/04/05 02:01:05;;;;;;;16.40;10.40;;;5.00;99.90;;;;;;4996475;28;20102;-79
2021/04/05 02:03:32;;;;;;;15.30;10.75;;;5.00;99.90;;;;;;5003975;28;20355;-79
2021/04/05 02:06:01;;;;;;;15.38;10.30;;;5.10;99.90;;;;;;4992630;28;20025;-77
2021/04/05 02:08:29;;;;;;;14.23;10.18;;;5.10;99.90;;;;;;4992663;28;20425;-77
2021/04/05 02:10:59;;;;;;;15.50;10.80;;;5.10;99.90;;;;;;4992238;28;20050;-78
2021/04/05 02:13:25;;;;;;;16.20;11.15;;;5.10;99.90;;;;;;4993748;28;20109;-78
2021/04/05 02:15:53;;;;;;;15.82;10.80;;;5.10;99.90;;;;;;4996351;28;20473;-78
2021/04/05 02:18:21;;;;;;;17.38;10.65;;;5.10;99.90;;;;;;5011486;28;20022;-79
2021/04/05 02:20:48;;;;;;;15.30;10.85;;;5.00;99.90;;;;;;4994317;28;20060;-79
2021/04/05 02:23:14;;;;;;;12.73;9.43;;;5.00;99.90;;;;;;5008886;28;20034;-78
2021/04/05 02:28:28;;;;;;;15.40;10.13;;;4.90;99.90;;;;;;4986799;28;20058;-79
2021/04/05 02:30:55;;;;;;;13.85;9.75;;;4.90;99.90;;;;;;4973768;28;20022;-79
2021/04/05 02:33:21;;;;;;;14.90;9.95;;;4.80;99.90;;;;;;4984360;28;20034;-77
2021/04/05 02:35:47;;;;;;;15.38;10.50;;;4.80;99.90;;;;;;4992923;28;20023;-78
2021/04/05 02:38:13;;;;;;;19.92;12.05;;;4.80;99.90;;;;;;4992405;28;20029;-78
2021/04/05 02:40:41;;;;;;;17.00;10.90;;;4.80;99.90;;;;;;5010411;28;20018;-80
2021/04/05 02:43:07;;;;;;;16.52;10.45;;;4.80;99.90;;;;;;5009998;28;20025;-79
2021/04/05 02:45:34;;;;;;;14.02;9.82;;;4.80;99.90;;;;;;4993357;28;20023;-81
2021/04/05 02:48:02;;;;;;;14.88;10.45;;;4.80;99.90;;;;;;4991588;28;20077;-79
2021/04/05 02:50:30;;;;;;;16.05;11.10;;;4.80;99.90;;;;;;4990777;28;20030;-78
2021/04/05 02:52:59;;;;;;;13.43;9.73;;;4.70;99.90;;;;;;4990425;28;20069;-78
2021/04/05 02:55:25;;;;;;;15.18;10.48;;;4.70;99.90;;;;;;4992410;28;20522;-79
2021/04/05 02:57:59;;;;;;;16.08;10.73;;;4.60;99.90;;;;;;4975627;28;20130;-80
2021/04/05 03:00:27;;;;;;;17.58;11.02;;;4.60;99.90;;;;;;4974401;28;20417;-80
2021/04/05 03:02:54;;;;;;;13.90;9.85;;;4.60;99.90;;;;;;4989478;28;20038;-80
2021/04/05 03:05:22;;;;;;;14.10;9.95;;;4.40;99.90;;;;;;4991599;28;20027;-80
2021/04/05 03:07:50;;;;;;;14.70;9.73;;;4.30;99.90;;;;;;4991754;28;20028;-78
2021/04/05 03:10:21;;;;;;;15.20;10.65;;;4.30;99.90;;;;;;4991266;28;20113;-78
2021/04/05 03:12:50;;;;;;;15.82;10.23;;;4.30;99.90;;;;;;4978487;28;20028;-79
2021/04/05 03:15:17;;;;;;;15.98;10.35;;;4.40;99.90;;;;;;4989878;28;20061;-78
2021/04/05 03:17:43;;;;;;;14.85;9.80;;;4.40;99.90;;;;;;4971863;28;20033;-78
2021/04/05 03:20:09;;;;;;;17.67;10.90;;;4.30;99.90;;;;;;4972156;28;20110;-79
2021/04/05 03:22:38;;;;;;;15.45;10.00;;;4.30;99.90;;;;;;4998587;28;20092;-78
2021/04/05 03:25:06;;;;;;;14.48;9.85;;;4.20;99.90;;;;;;4992665;28;20033;-78
2021/04/05 03:27:32;;;;;;;15.07;10.43;;;4.30;99.90;;;;;;4990052;28;20053;-79
2021/04/05 03:30:00;;;;;;;17.83;10.77;;;4.40;99.90;;;;;;4991581;28;20026;-79
2021/04/05 03:32:29;;;;;;;15.45;10.57;;;4.40;99.90;;;;;;4972791;28;20050;-78
2021/04/05 03:34:59;;;;;;;16.38;9.20;;;4.50;99.90;;;;;;4991880;28;20026;-79
2021/04/05 03:37:30;;;;;;;15.80;9.90;;;4.50;99.90;;;;;;4989477;28;20037;-78
2021/04/05 03:39:56;;;;;;;17.88;11.18;;;4.50;99.90;;;;;;4989213;28;20053;-77
2021/04/05 03:42:35;;;;;;;13.60;9.95;;;4.40;99.90;;;;;;4990533;28;20069;-79
2021/04/05 03:45:12;;;;;;;14.73;10.82;;;4.10;99.90;;;;;;4990456;28;20465;-78
2021/04/05 03:47:50;;;;;;;13.60;10.18;;;4.00;99.90;;;;;;4990637;28;20022;-78
2021/04/05 03:50:38;;;;;;;19.13;10.18;;;4.00;99.90;;;;;;4987680;28;20493;-79
2021/04/05 03:53:32;;;;;;;15.60;10.32;;;3.90;99.90;;;;;;4990337;28;20019;-79
2021/04/05 03:56:05;;;;;;;13.52;9.88;;;3.90;99.90;;;;;;4992033;28;20414;-78
2021/04/05 03:58:38;;;;;;;13.35;10.23;;;3.90;99.90;;;;;;4991537;28;20019;-79
2021/04/05 04:01:09;;;;;;;16.83;10.98;;;4.10;99.90;;;;;;4990200;28;20105;-78
2021/04/05 04:06:31;;;;;;;14.95;10.35;;;4.10;99.90;;;;;;4991452;28;20500;-80
2021/04/05 04:08:58;;;;;;;16.40;10.65;;;4.10;99.90;;;;;;4990509;28;20056;-79
2021/04/05 04:11:27;;;;;;;15.55;11.00;;;4.10;99.90;;;;;;4973899;28;20029;-78
2021/04/05 04:13:56;;;;;;;19.25;12.15;;;4.10;99.90;;;;;;4988342;28;20029;-78
2021/04/05 04:16:34;;;;;;;16.67;12.00;;;4.00;99.90;;;;;;4980278;28;20461;-79
2021/04/05 04:19:16;;;;;;;;;;;;;;;;;;;;;
2021/04/05 04:21:46;;;;;;;16.48;10.40;;;4.10;99.90;;;;;;5010134;28;20032;-80
2021/04/05 04:24:12;;;;;;;25.75;15.55;;;4.20;99.90;;;;;;5002613;28;20041;-77
2021/04/05 04:26:37;;;;;;;20.90;13.10;;;4.20;99.90;;;;;;4992701;28;20147;-79
2021/04/05 04:29:04;;;;;;;17.35;12.00;;;4.20;99.90;;;;;;4995039;28;20035;-78
2021/04/05 04:31:31;;;;;;;15.07;11.65;;;4.30;99.90;;;;;;4994699;28;20050;-78
2021/04/05 04:33:57;;;;;;;15.48;10.65;;;4.30;99.90;;;;;;4994138;28;20369;-79
2021/04/05 04:36:32;;;;;;;16.63;10.93;;;4.40;99.90;;;;;;4994531;28;20456;-78
2021/04/05 04:38:58;;;;;;;16.02;11.18;;;4.30;99.90;;;;;;4991145;28;20030;-76
2021/04/05 04:41:29;;;;;;;19.38;11.88;;;4.30;99.90;;;;;;4994587;28;20076;-78
2021/04/05 04:44:00;;;;;;;19.17;11.63;;;4.30;99.90;;;;;;4991883;28;20373;-77
2021/04/05 04:46:27;;;;;;;15.63;11.35;;;4.20;99.90;;;;;;4977041;28;20093;-77
2021/04/05 04:49:24;;;;;;;14.98;10.15;;;4.20;99.90;;;;;;4993561;28;20034;-79
2021/04/05 04:51:50;;;;;;;17.60;11.43;;;4.40;99.90;;;;;;4978149;28;20090;-77
2021/04/05 04:54:15;;;;;;;21.20;12.00;;;4.50;99.90;;;;;;4993168;28;20169;-76
2021/04/05 04:56:42;;;;;;;20.25;13.18;;;4.60;99.90;;;;;;4995372;28;20390;-77
2021/04/05 04:59:09;;;;;;;20.48;13.20;;;4.60;99.90;;;;;;4973707;28;20014;-77
2021/04/05 05:01:45;;;;;;;18.83;13.20;;;4.80;99.90;;;;;;4972102;28;20023;-76
2021/04/05 05:04:23;;;;;;;19.92;11.73;;;4.90;99.90;;;;;;4983999;28;20025;-79
2021/04/05 05:06:51;;;;;;;26.20;12.63;;;5.00;99.90;;;;;;4994318;28;20030;-80
2021/04/05 05:09:19;;;;;;;25.38;12.77;;;5.00;99.90;;;;;;4993746;28;20583;-80
2021/04/05 05:11:46;;;;;;;24.25;12.80;;;4.60;99.90;;;;;;4994568;28;20019;-79
2021/04/05 05:17:07;;;;;;;46.95;26.73;;;4.70;99.90;;;;;;5006339;28;20080;-79
2021/04/05 05:19:36;;;;;;;40.05;23.63;;;5.90;99.90;;;;;;4995599;28;20422;-80
2021/04/05 05:22:04;;;;;;;20.98;14.00;;;6.70;99.90;;;;;;5013240;28;20535;-80
2021/04/05 05:24:32;;;;;;;19.70;13.23;;;5.90;99.90;;;;;;4998696;28;20097;-79
2021/04/05 05:26:59;;;;;;;20.08;12.00;;;5.70;99.90;;;;;;4973876;28;20049;-79
2021/04/05 05:29:27;;;;;;;20.77;13.25;;;5.50;99.90;;;;;;4985541;28;20125;-78
2021/04/05 05:31:52;;;;;;;46.63;29.33;;;5.50;99.90;;;;;;4997564;28;20034;-79
2021/04/05 05:34:22;;;;;;;27.80;17.55;;;5.70;99.90;;;;;;4982033;28;20037;-79
2021/04/05 05:36:49;;;;;;;90.72;49.92;;;6.20;99.90;;;;;;4985297;28;20018;-82
2021/04/05 05:39:17;;;;;;;37.67;23.50;;;6.90;99.90;;;;;;4974058;28;20026;-79
2021/04/05 05:42:12;;;;;;;24.27;15.80;;;6.50;99.90;;;;;;4973309;28;20746;-79
2021/04/05 05:45:07;;;;;;;17.35;12.05;;;6.10;99.90;;;;;;4982221;28;20057;-80
2021/04/05 05:48:03;;;;;;;19.10;11.85;;;5.70;99.90;;;;;;4968892;28;20752;-80
2021/04/05 05:50:50;;;;;;;17.23;12.77;;;5.70;99.90;;;;;;4983441;28;20118;-80
2021/04/05 05:53:19;;;;;;;17.95;11.18;;;5.70;99.90;;;;;;4983786;28;20026;-82
2021/04/05 05:55:57;;;;;;;17.42;11.57;;;5.80;99.90;;;;;;4980053;28;20026;-80
2021/04/05 05:58:22;;;;;;;16.75;11.90;;;5.80;99.90;;;;;;4982249;28;20204;-80
2021/04/05 06:00:54;;;;;;;18.02;12.10;;;5.80;99.90;;;;;;4994861;28;20453;-80
2021/04/05 06:03:34;;;;;;;26.45;12.27;;;5.70;99.90;;;;;;4993799;28;20030;-81
2021/04/05 06:06:32;;;;;;;20.20;12.07;;;5.90;99.90;;;;;;4976713;28;20030;-82
2021/04/05 06:09:18;;;;;;;17.08;11.48;;;5.90;99.90;;;;;;4976104;28;20726;-79
2021/04/05 06:11:52;;;;;;;56.47;29.88;;;5.70;99.90;;;;;;4994317;28;20038;-84
2021/04/05 06:14:43;;;;;;;47.47;31.58;;;7.10;99.90;;;;;;4982593;28;20031;-79
2021/04/05 06:17:27;;;;;;;25.65;14.27;;;7.10;99.90;;;;;;4995319;28;20033;-81
2021/04/05 06:20:18;;;;;;;18.63;11.85;;;6.40;99.90;;;;;;5013162;28;20026;-81
2021/04/05 06:22:51;;;;;;;19.05;11.20;;;6.30;99.90;;;;;;5013795;28;20381;-80
2021/04/05 06:25:50;;;;;;;25.70;11.77;;;6.50;99.90;;;;;;5009031;28;20027;-80
2021/04/05 06:28:52;;;;;;;18.83;11.85;;;6.60;99.90;;;;;;4993241;28;20054;-79
2021/04/05 06:31:56;;;;;;;18.67;12.48;;;6.70;99.90;;;;;;4993545;28;20069;-81
2021/04/05 06:34:33;;;;;;;20.45;12.50;;;6.70;99.90;;;;;;4923619;28;20036;-80
2021/04/05 06:37:36;;;;;;;21.60;13.55;;;6.40;99.90;;;;;;4993186;28;20026;-81
2021/04/05 06:40:09;;;;;;;17.80;13.07;;;6.40;99.90;;;;;;4981765;28;20023;-81
2021/04/05 06:43:05;;;;;;;20.10;12.88;;;6.60;99.90;;;;;;4991209;28;20558;-80
2021/04/05 06:45:56;;;;;;;19.55;12.45;;;6.60;99.90;;;;;;4973744;28;20037;-81
2021/04/05 06:48:41;;;;;;;22.05;11.27;;;6.80;99.90;;;;;;4982402;28;20042;-80
2021/04/05 06:51:44;;;;;;;19.65;12.85;;;6.90;99.90;;;;;;4983428;28;20026;-80
2021/04/05 06:54:27;;;;;;;17.15;11.57;;;7.00;99.90;;;;;;4981678;28;20113;-81
2021/04/05 06:57:42;;;;;;;18.48;11.90;;;7.20;99.90;;;;;;4962915;28;20086;-79
2021/04/05 07:00:59;;;;;;;18.00;12.23;;;7.10;99.90;;;;;;4936824;28;20455;-80
2021/04/05 07:04:02;;;;;;;17.75;12.05;;;6.90;99.90;;;;;;4934922;28;20049;-80
2021/04/05 07:06:39;;;;;;;16.85;11.07;;;7.10;99.90;;;;;;4983269;28;20022;-80
2021/04/05 07:09:25;;;;;;;19.35;11.35;;;7.30;99.90;;;;;;4973496;28;20038;-81
2021/04/05 07:12:28;;;;;;;17.25;11.57;;;7.30;99.90;;;;;;4980838;28;20022;-80
2021/04/05 07:15:16;;;;;;;18.08;11.77;;;7.50;99.90;;;;;;4980395;28;20029;-80
2021/04/05 07:18:13;;;;;;;21.98;11.25;;;7.70;99.90;;;;;;4980895;28;20688;-82
2021/04/05 07:21:06;;;;;;;15.80;11.02;;;7.60;99.90;;;;;;4963964;28;20022;-81
2021/04/05 07:24:01;;;;;;;15.23;11.23;;;7.50;99.90;;;;;;4980969;28;20089;-81
2021/04/05 07:26:50;;;;;;;17.08;11.15;;;7.40;99.90;;;;;;4971241;28;20396;-81
2021/04/05 07:29:35;;;;;;;19.17;10.10;;;7.70;99.90;;;;;;4970367;28;20122;-79
2021/04/05 07:32:21;;;;;;;15.40;10.73;;;7.80;99.90;;;;;;4968385;28;20026;-78
2021/04/05 07:35:28;;;;;;;14.23;9.90;;;7.90;99.90;;;;;;4973761;28;20026;-81
2021/04/05 07:38:06;;;;;;;16.75;10.70;;;8.00;99.90;;;;;;4971437;28;20027;-80
2021/04/05 07:41:00;;;;;;;15.02;10.75;;;8.20;99.90;;;;;;4970464;28;20022;-81
2021/04/05 07:44:10;;;;;;;20.77;10.38;;;8.50;99.90;;;;;;4970293;28;20074;-80
2021/04/05 07:46:48;;;;;;;23.45;11.02;;;8.40;99.90;;;;;;4970048;28;20030;-83
2021/04/05 07:49:21;;;;;;;14.43;10.27;;;8.70;99.90;;;;;;4970783;28;20117;-80
2021/04/05 07:51:51;;;;;;;24.08;12.57;;;8.90;99.90;;;;;;4969812;28;20034;-79
2021/04/05 07:54:20;;;;;;;18.95;10.63;;;9.10;99.90;;;;;;4973034;28;20046;-80
2021/04/05 07:57:12;;;;;;;15.27;10.88;;;9.20;99.80;;;;;;4936827;28;20031;-80
2021/04/05 07:59:46;;;;;;;19.23;11.70;;;9.10;99.90;;;;;;4952115;28;20089;-80
2021/04/05 08:02:56;;;;;;;15.80;10.90;;;9.20;99.50;;;;;;4953890;29;20118;-82
2021/04/05 08:05:40;;;;;;;22.90;12.75;;;9.10;99.50;;;;;;4937355;28;20031;-81
2021/04/05 08:08:47;;;;;;;16.40;10.60;;;9.20;99.60;;;;;;4970442;28;20031;-81
2021/04/05 08:11:21;;;;;;;16.17;10.80;;;9.30;99.90;;;;;;4949398;28;20147;-81
2021/04/05 08:14:02;;;;;;;15.80;10.10;;;9.50;99.90;;;;;;4953991;28;20085;-81
2021/04/05 08:16:56;;;;;;;13.68;10.07;;;9.60;96.50;;;;;;4971036;28;20023;-80
2021/04/05 08:19:58;;;;;;;16.35;9.95;;;9.80;97.10;;;;;;4952316;28;20038;-83
2021/04/05 08:22:45;;;;;;;14.55;10.25;;;9.80;96.60;;;;;;4953515;28;20545;-81
2021/04/05 08:25:43;;;;;;;18.63;10.32;;;10.30;97.30;;;;;;4952005;28;20151;-79
2021/04/05 08:28:54;;;;;;;15.75;9.57;;;10.50;92.10;;;;;;4987108;28;20046;-82
2021/04/05 08:31:52;;;;;;;12.25;8.27;;;10.30;91.00;;;;;;4973201;28;20030;-80
2021/04/05 08:35:05;;;;;;;15.73;9.02;;;10.70;90.20;;;;;;4970494;28;20094;-81
2021/04/05 08:38:01;;;;;;;14.52;9.63;;;11.10;89.80;;;;;;4987269;28;20420;-81
2021/04/05 08:41:09;;;;;;;15.25;8.60;;;11.10;86.50;;;;;;4966679;28;20422;-80
2021/04/05 08:44:08;;;;;;;14.32;9.68;;;11.40;84.50;;;;;;4972567;28;20062;-81
2021/04/05 08:46:36;;;;;;;15.95;10.05;;;11.90;83.30;;;;;;4972894;28;20027;-80
2021/04/05 08:49:10;;;;;;;16.27;8.88;;;12.30;82.80;;;;;;4972254;28;20035;-78
2021/04/05 08:51:45;;;;;;;17.30;10.50;;;12.10;79.70;;;;;;4977888;28;20018;-80
2021/04/05 08:54:15;;;;;;;13.82;10.25;;;12.30;87.60;;;;;;4990874;28;20131;-81
2021/04/05 08:57:00;;;;;;;15.32;9.57;;;13.20;84.50;;;;;;4984246;28;20035;-81
2021/04/05 08:59:41;;;;;;;13.38;8.80;;;13.20;73.80;;;;;;4956409;28;20092;-78
2021/04/05 09:02:50;;;;;;;14.30;8.70;;;12.80;74.00;;;;;;4973384;28;20018;-80
2021/04/05 09:05:21;;;;;;;13.13;8.38;;;12.50;71.50;;;;;;4893989;29;20072;-81
2021/04/05 09:08:09;;;;;;;12.95;9.50;;;12.60;72.60;;;;;;4908850;29;20079;-80
2021/04/05 09:11:05;;;;;;;11.38;7.53;;;12.70;72.20;;;;;;4962515;28;20030;-83
2021/04/05 09:13:50;;;;;;;10.63;7.65;;;12.40;66.40;;;;;;4994080;28;20053;-80
2021/04/05 09:16:32;;;;;;;9.68;7.22;;;12.20;67.00;;;;;;4992183;28;20026;-83
2021/04/05 09:19:13;;;;;;;14.13;7.70;;;12.50;65.80;;;;;;4974531;28;20368;-82
2021/04/05 09:21:57;;;;;;;;;;;13.10;67.50;;;;;;4982805;28;20026;-83
2021/04/05 09:25:04;;;;;;;12.68;7.43;;;13.30;70.00;;;;;;4993174;28;19921;-79
2021/04/05 09:27:45;;;;;;;12.98;7.60;;;12.90;66.70;;;;;;4992657;22;20070;-79
2021/04/05 09:30:30;;;;;;;;;;;13.40;66.90;;;;;;4985994;28;20039;-85
2021/04/05 09:33:31;;;;;;;10.70;7.00;;;13.60;63.90;;;;;;4955736;29;19903;-83
2021/04/05 09:36:21;;;;;;;10.65;6.22;;;14.20;61.50;;;;;;4970302;28;20019;-81
2021/04/05 09:39:15;;;;;;;11.47;6.77;;;14.10;59.60;;;;;;4957198;28;20019;-84
2021/04/05 09:42:16;;;;;;;10.82;7.53;;;14.50;60.50;;;;;;4957128;28;20394;-82
2021/04/05 09:48:12;;;;;;;12.75;7.13;;;13.20;60.20;;;;;;5243371;23;20103;-81
2021/04/05 09:50:58;;;;;;;12.30;7.88;;;13.00;60.90;;;;;;5041216;28;20068;-80
2021/04/05 09:53:31;;;;;;;11.30;7.50;;;13.10;60.50;;;;;;5053375;28;20460;-82
2021/04/05 09:56:06;;;;;;;10.02;6.75;;;13.40;60.70;;;;;;5036672;28;20030;-80
2021/04/05 09:59:00;;;;;;;11.07;6.95;;;13.80;60.70;;;;;;5003810;28;20068;-83
2021/04/05 10:01:29;;;;;;;12.93;7.93;;;14.60;60.90;;;;;;4996463;28;20029;-79
2021/04/05 10:04:02;;;;;;;13.05;7.35;;;15.10;59.80;;;;;;4995564;28;20026;-81
2021/04/05 10:06:33;;;;;;;14.38;7.07;;;15.20;58.40;;;;;;4997104;28;20092;-80
2021/04/05 10:09:04;;;;;;;16.10;7.78;;;15.40;55.40;;;;;;5013338;28;20038;-80
2021/04/05 10:11:34;;;;;;;9.85;6.90;;;14.80;56.20;;;;;;4995756;28;20484;-81
2021/04/05 10:14:25;;;;;;;12.68;6.10;;;15.00;56.90;;;;;;5013351;28;20105;-82
2021/04/05 10:16:53;;;;;;;9.40;6.68;;;14.60;55.30;;;;;;5025670;28;20017;-85
2021/04/05 10:19:35;;;;;;;9.88;6.93;;;14.70;54.50;;;;;;5032573;28;20033;-83
2021/04/05 10:22:04;;;;;;;10.55;6.55;;;14.70;54.50;;;;;;5032849;28;20027;-81
2021/04/05 10:24:44;;;;;;;12.88;6.18;;;14.80;53.30;;;;;;5032857;28;20108;-80
2021/04/05 10:27:14;;;;;;;9.23;6.25;;;15.40;54.80;;;;;;5014494;28;20033;-82
2021/04/05 10:29:53;;;;;;;10.37;7.20;;;15.20;53.10;;;;;;4995696;28;20038;-81
2021/04/05 10:32:21;;;;;;;11.25;8.20;;;15.10;54.30;;;;;;4997263;28;20030;-81
2021/04/05 10:34:53;;;;;;;10.50;6.70;;;14.40;55.70;;;;;;4994220;28;20030;-81
2021/04/05 10:37:24;;;;;;;12.57;7.47;;;14.30;57.30;;;;;;4995571;28;20635;-82
2021/04/05 10:39:52;;;;;;;14.52;7.88;;;14.00;55.90;;;;;;5012950;28;20179;-81
2021/04/05 10:42:27;;;;;;;12.38;7.68;;;14.00;55.70;;;;;;5024524;28;20455;-81
2021/04/05 10:45:01;;;;;;;11.90;7.32;;;14.00;56.20;;;;;;5012467;28;20032;-80
2021/04/05 10:47:57;;;;;;;11.98;7.15;;;14.20;56.60;;;;;;5032375;28;20053;-80
2021/04/05 10:50:38;;;;;;;10.60;7.20;;;15.00;56.00;;;;;;5038632;28;20123;-82
2021/04/05 10:53:15;;;;;;;10.13;7.00;;;15.20;54.90;;;;;;5034529;28;20025;-79
2021/04/05 10:55:52;;;;;;;10.18;7.00;;;15.20;54.80;;;;;;5031212;28;20033;-80
2021/04/05 10:58:23;;;;;;;10.93;7.43;;;14.90;54.10;;;;;;5019332;28;20022;-80
2021/04/05 11:00:57;;;;;;;10.75;7.22;;;15.20;57.10;;;;;;5021580;28;20395;-78
2021/04/05 11:03:31;;;;;;;12.15;6.93;;;15.20;53.80;;;;;;4989783;28;20113;-80
2021/04/05 11:06:05;;;;;;;11.52;7.05;;;14.80;57.70;;;;;;5019879;28;20436;-81
2021/04/05 11:08:34;;;;;;;12.75;7.75;;;14.30;56.90;;;;;;5028502;28;20454;-81
2021/04/05 11:11:10;;;;;;;10.27;7.28;;;14.70;56.50;;;;;;5002679;28;20468;-80
2021/04/05 11:13:47;;;;;;;9.63;7.05;;;14.90;55.40;;;;;;5020018;28;20429;-80
2021/04/05 11:16:16;;;;;;;10.77;6.97;;;14.90;55.10;;;;;;5020399;28;20419;-81
2021/04/05 11:18:55;;;;;;;10.32;6.75;;;15.10;53.80;;;;;;5020138;28;20129;-80
2021/04/05 11:21:26;;;;;;;11.48;6.53;;;15.60;53.90;;;;;;5015770;28;20030;-80
2021/04/05 11:23:56;;;;;;;;;;;15.50;51.50;;;;;;5018617;28;20488;-81
2021/04/05 11:26:26;;;;;;;11.50;6.93;;;16.00;52.20;;;;;;5002723;28;19905;-80
2021/04/05 11:28:55;;;;;;;10.60;6.90;;;16.20;51.90;;;;;;5019540;28;20094;-80
2021/04/05 11:31:22;;;;;;;12.20;7.30;;;15.50;52.70;;;;;;5021030;28;20509;-80
2021/04/05 11:33:52;;;;;;;9.63;6.70;;;15.20;53.20;;;;;;5019349;28;20026;-80
2021/04/05 11:36:18;;;;;;;10.10;6.32;;;15.50;53.30;;;;;;5020784;28;20056;-81
2021/04/05 11:38:46;;;;;;;9.75;6.57;;;16.10;52.40;;;;;;5004015;28;20603;-81
2021/04/05 11:41:15;;;;;;;10.30;6.28;;;15.70;53.30;;;;;;5003529;28;20033;-81
2021/04/05 11:43:46;;;;;;;9.70;6.45;;;15.70;51.10;;;;;;5007468;28;20032;-81
2021/04/05 11:46:15;;;;;;;9.45;6.50;;;15.70;50.90;;;;;;5025004;28;20035;-80
2021/04/05 11:48:43;;;;;;;9.55;6.43;;;15.80;50.80;;;;;;5004007;28;20128;-79
2021/04/05 11:51:59;;;;;;;10.73;7.25;;;15.50;52.30;;;;;;5025702;28;20017;-80
2021/04/05 11:54:28;;;;;;;11.02;6.32;;;15.80;51.20;;;;;;4940084;29;20020;-80
2021/04/05 11:56:59;;;;;;;10.98;6.40;;;16.00;50.50;;;;;;5011046;28;20033;-79
2021/04/05 11:59:28;;;;;;;9.55;6.18;;;16.20;50.10;;;;;;5019497;28;20160;-80
2021/04/05 12:02:00;;;;;;;9.90;6.07;;;16.30;49.90;;;;;;5019052;28;20049;-82
2021/04/05 12:04:31;;;;;;;8.27;5.72;;;16.10;49.40;;;;;;5013392;28;20075;-78
2021/04/05 12:07:11;;;;;;;9.35;5.95;;;16.70;50.70;;;;;;5029973;28;20032;-81
2021/04/05 12:09:46;;;;;;;9.02;6.13;;;17.30;50.40;;;;;;5012714;28;20034;-81
2021/04/05 12:13:05;;;;;;;9.20;6.40;;;16.60;49.30;;;;;;5030765;28;20095;-81
2021/04/05 12:15:33;;;;;;;9.50;6.32;;;16.60;49.80;;;;;;4975538;28;20029;-79
2021/04/05 12:18:01;;;;;;;9.20;6.10;;;16.70;50.40;;;;;;4968066;28;20039;-81
2021/04/05 12:20:30;;;;;;;14.52;6.45;;;16.80;48.90;;;;;;4993190;28;20452;-79
2021/04/05 12:22:59;;;;;;;8.85;6.45;;;16.70;48.90;;;;;;5009518;28;20025;-80
2021/04/05 12:25:29;;;;;;;10.95;5.97;;;16.50;50.00;;;;;;5008375;28;20022;-79
2021/04/05 12:28:01;;;;;;;9.18;6.32;;;17.40;49.80;;;;;;5009375;28;20041;-79
2021/04/05 12:30:30;;;;;;;10.77;6.50;;;16.80;48.30;;;;;;5024128;28;20278;-77
2021/04/05 12:32:57;;;;;;;9.68;6.47;;;16.60;49.40;;;;;;5030959;28;20396;-78
2021/04/05 12:35:25;;;;;;;10.93;6.43;;;16.90;51.10;;;;;;5012881;28;20029;-79
2021/04/05 12:38:11;;;;;;;9.82;6.32;;;17.20;49.30;;;;;;5031106;28;20171;-78
2021/04/05 12:40:39;;;;;;;8.43;5.90;;;17.20;49.40;;;;;;5013102;28;20381;-80
2021/04/05 12:43:13;;;;;;;10.75;6.10;;;18.10;47.90;;;;;;5013312;28;20021;-79
2021/04/05 12:45:48;;;;;;;9.35;6.18;;;18.00;47.50;;;;;;5034209;28;20461;-80
2021/04/05 12:48:14;;;;;;;10.77;5.78;;;18.40;46.90;;;;;;5031276;28;20050;-81
2021/04/05 12:50:41;;;;;;;12.13;5.85;;;17.50;46.50;;;;;;5026184;28;20030;-80
2021/04/05 12:53:09;;;;;;;8.48;5.80;;;17.20;49.80;;;;;;5019552;28;20462;-79
2021/04/05 12:55:45;;;;;;;8.65;5.70;;;17.30;48.10;;;;;;5014580;28;20034;-78
2021/04/05 12:58:11;;;;;;;10.57;5.70;;;17.40;47.70;;;;;;5013228;28;20068;-79
2021/04/05 13:00:42;;;;;;;9.40;6.20;;;16.90;48.20;;;;;;5026170;28;20037;-79
2021/04/05 13:03:12;;;;;;;9.65;6.07;;;16.70;48.70;;;;;;5017399;28;20066;-79
2021/04/05 13:05:53;;;;;;;;;;;17.80;48.10;;;;;;5022729;28;20017;-80
2021/04/05 13:08:21;;;;;;;;;;;18.50;47.10;;;;;;5016656;28;19909;-80
2021/04/05 13:11:06;;;;;;;9.75;5.60;;;19.10;45.80;;;;;;5018042;28;20292;-77
2021/04/05 13:13:38;;;;;;;8.77;5.70;;;19.50;45.30;;;;;;5013863;28;20026;-79
2021/04/05 13:16:28;;;;;;;8.70;5.32;;;18.80;46.00;;;;;;5015066;28;20022;-80
2021/04/05 13:18:58;;;;;;;10.17;5.87;;;18.30;46.90;;;;;;5022628;28;20032;-78
2021/04/05 13:21:25;;;;;;;;;;;18.00;46.50;;;;;;5023431;28;20253;-80
2021/04/05 13:23:55;;;;;;;9.18;5.53;;;19.10;46.70;;;;;;5033288;28;19981;-79
2021/04/05 13:26:30;;;;;;;10.85;5.70;;;19.40;45.80;;;;;;5033839;28;20433;-80
2021/04/05 13:28:58;;;;;;;8.95;5.80;;;19.90;45.20;;;;;;5033337;28;20504;-80
2021/04/05 13:31:25;;;;;;;7.90;5.03;;;20.20;44.70;;;;;;5033720;28;20425;-79
2021/04/05 13:34:01;;;;;;;12.02;5.85;;;20.30;44.60;;;;;;5025197;28;20025;-81
2021/04/05 13:36:27;;;;;;;10.05;5.43;;;20.50;43.90;;;;;;5019081;28;20105;-78
2021/04/05 13:39:03;;;;;;;8.52;5.18;;;19.00;45.00;;;;;;5013656;28;20058;-79
2021/04/05 13:41:39;;;;;;;9.95;5.32;;;18.80;45.40;;;;;;4996383;28;20022;-81